sensor_id;sensor_type;location;lat;lon;timestamp;P1;durP1;ratioP1;P2;durP2;ratioP2
9836;SDS011;4957;51.412;6.724;2024-03-07T00:00:33;56.70;;;26.37;;
9836;SDS011;4957;51.412;6.724;2024-03-07T00:02:59;51.23;;;26.47;;
9836;SDS011;4957;51.412;6.724;2024-03-07T00:05:26;56.20;;;26.37;;
9836;SDS011;4957;51.412;6.724;2024-03-07T00:07:51;63.50;;;27.97;;
9836;SDS011;4957;51.412;6.724;2024-03-07T00:10:17;50.97;;;26.27;;
9836;SDS011;4957;51.412;6.724;2024-03-07T00:12:43;57.93;;;24.57;;
9836;SDS011;4957;51.412;6.724;2024-03-07T00:15:10;54.77;;;26.80;;
9836;SDS011;4957;51.412;6.724;2024-03-07T00:17:37;45.53;;;23.07;;
9836;SDS011;4957;51.412;6.724;2024-03-07T00:20:03;54.33;;;24.80;;
9836;SDS011;4957;51.412;6.724;2024-03-07T00:22:33;46.73;;;25.13;;
9836;SDS011;4957;51.412;6.724;2024-03-07T00:25:00;53.27;;;26.10;;
9836;SDS011;4957;51.412;6.724;2024-03-07T00:27:26;53.07;;;25.37;;
9836;SDS011;4957;51.412;6.724;2024-03-07T00:29:52;48.63;;;22.83;;
9836;SDS011;4957;51.412;6.724;2024-03-07T00:32:21;50.90;;;23.57;;
9836;SDS011;4957;51.412;6.724;2024-03-07T00:34:47;49.93;;;24.83;;
9836;SDS011;4957;51.412;6.724;2024-03-07T00:37:13;58.10;;;25.53;;
9836;SDS011;4957;51.412;6.724;2024-03-07T00:39:40;55.53;;;25.53;;
9836;SDS011;4957;51.412;6.724;2024-03-07T00:42:06;57.87;;;26.43;;
9836;SDS011;4957;51.412;6.724;2024-03-07T00:44:32;55.70;;;26.43;;
9836;SDS011;4957;51.412;6.724;2024-03-07T00:46:59;59.63;;;26.60;;
9836;SDS011;4957;51.412;6.724;2024-03-07T00:49:25;50.97;;;25.27;;
9836;SDS011;4957;51.412;6.724;2024-03-07T00:51:51;47.30;;;22.57;;
9836;SDS011;4957;51.412;6.724;2024-03-07T00:54:16;43.87;;;23.40;;
9836;SDS011;4957;51.412;6.724;2024-03-07T00:56:42;51.53;;;25.10;;
9836;SDS011;4957;51.412;6.724;2024-03-07T00:59:08;51.07;;;25.90;;
9836;SDS011;4957;51.412;6.724;2024-03-07T01:01:33;50.80;;;25.37;;
9836;SDS011;4957;51.412;6.724;2024-03-07T01:04:01;52.23;;;25.30;;
9836;SDS011;4957;51.412;6.724;2024-03-07T01:06:27;47.37;;;23.53;;
9836;SDS011;4957;51.412;6.724;2024-03-07T01:08:53;52.67;;;26.07;;
9836;SDS011;4957;51.412;6.724;2024-03-07T01:11:19;59.73;;;26.13;;
9836;SDS011;4957;51.412;6.724;2024-03-07T01:13:45;49.43;;;25.17;;
9836;SDS011;4957;51.412;6.724;2024-03-07T01:16:11;55.17;;;28.23;;
9836;SDS011;4957;51.412;6.724;2024-03-07T01:18:37;55.27;;;26.33;;
9836;SDS011;4957;51.412;6.724;2024-03-07T01:21:03;55.50;;;27.77;;
9836;SDS011;4957;51.412;6.724;2024-03-07T01:23:30;47.80;;;24.90;;
9836;SDS011;4957;51.412;6.724;2024-03-07T01:25:57;51.43;;;25.33;;
9836;SDS011;4957;51.412;6.724;2024-03-07T01:28:23;58.67;;;26.63;;
9836;SDS011;4957;51.412;6.724;2024-03-07T01:30:50;52.60;;;26.17;;
9836;SDS011;4957;51.412;6.724;2024-03-07T01:33:17;58.23;;;27.40;;
9836;SDS011;4957;51.412;6.724;2024-03-07T01:35:46;65.27;;;27.13;;
9836;SDS011;4957;51.412;6.724;2024-03-07T01:38:12;54.13;;;26.17;;
9836;SDS011;4957;51.412;6.724;2024-03-07T01:40:45;57.07;;;28.20;;
9836;SDS011;4957;51.412;6.724;2024-03-07T01:43:11;61.47;;;29.43;;
9836;SDS011;4957;51.412;6.724;2024-03-07T01:45:37;60.97;;;28.20;;
9836;SDS011;4957;51.412;6.724;2024-03-07T01:48:08;61.13;;;28.67;;
9836;SDS011;4957;51.412;6.724;2024-03-07T01:50:35;61.23;;;28.47;;
9836;SDS011;4957;51.412;6.724;2024-03-07T01:53:07;55.20;;;26.13;;
9836;SDS011;4957;51.412;6.724;2024-03-07T01:55:36;54.93;;;26.77;;
9836;SDS011;4957;51.412;6.724;2024-03-07T01:58:03;55.07;;;27.47;;
9836;SDS011;4957;51.412;6.724;2024-03-07T02:00:31;57.17;;;27.70;;
9836;SDS011;4957;51.412;6.724;2024-03-07T02:02:56;56.03;;;25.37;;
9836;SDS011;4957;51.412;6.724;2024-03-07T02:05:22;54.13;;;28.30;;
9836;SDS011;4957;51.412;6.724;2024-03-07T02:07:49;61.40;;;28.57;;
9836;SDS011;4957;51.412;6.724;2024-03-07T02:10:15;58.83;;;28.07;;
9836;SDS011;4957;51.412;6.724;2024-03-07T02:12:42;55.90;;;27.33;;
9836;SDS011;4957;51.412;6.724;2024-03-07T02:15:08;59.47;;;28.30;;
9836;SDS011;4957;51.412;6.724;2024-03-07T02:17:34;66.27;;;29.73;;
9836;SDS011;4957;51.412;6.724;2024-03-07T02:20:01;59.67;;;28.50;;
9836;SDS011;4957;51.412;6.724;2024-03-07T02:22:29;55.67;;;26.43;;
9836;SDS011;4957;51.412;6.724;2024-03-07T02:24:54;63.50;;;29.57;;
9836;SDS011;4957;51.412;6.724;2024-03-07T02:27:20;58.77;;;28.50;;
9836;SDS011;4957;51.412;6.724;2024-03-07T02:29:46;53.73;;;27.03;;
9836;SDS011;4957;51.412;6.724;2024-03-07T02:32:12;53.97;;;28.43;;
9836;SDS011;4957;51.412;6.724;2024-03-07T02:34:38;58.63;;;27.57;;
9836;SDS011;4957;51.412;6.724;2024-03-07T02:37:03;53.23;;;27.80;;
9836;SDS011;4957;51.412;6.724;2024-03-07T02:39:29;65.00;;;28.73;;
9836;SDS011;4957;51.412;6.724;2024-03-07T02:41:55;63.57;;;32.40;;
9836;SDS011;4957;51.412;6.724;2024-03-07T02:44:21;57.37;;;28.10;;
9836;SDS011;4957;51.412;6.724;2024-03-07T02:46:46;55.03;;;28.20;;
9836;SDS011;4957;51.412;6.724;2024-03-07T02:49:14;55.63;;;27.73;;
9836;SDS011;4957;51.412;6.724;2024-03-07T02:51:40;61.83;;;27.90;;
9836;SDS011;4957;51.412;6.724;2024-03-07T02:54:08;60.70;;;28.07;;
9836;SDS011;4957;51.412;6.724;2024-03-07T02:56:34;57.80;;;28.07;;
9836;SDS011;4957;51.412;6.724;2024-03-07T02:59:00;59.30;;;29.23;;
9836;SDS011;4957;51.412;6.724;2024-03-07T03:01:26;56.73;;;28.70;;
9836;SDS011;4957;51.412;6.724;2024-03-07T03:03:52;64.50;;;30.90;;
9836;SDS011;4957;51.412;6.724;2024-03-07T03:06:17;62.70;;;29.20;;
9836;SDS011;4957;51.412;6.724;2024-03-07T03:08:45;56.57;;;28.23;;
9836;SDS011;4957;51.412;6.724;2024-03-07T03:11:11;64.47;;;30.00;;
9836;SDS011;4957;51.412;6.724;2024-03-07T03:13:41;65.43;;;29.43;;
9836;SDS011;4957;51.412;6.724;2024-03-07T03:16:07;57.30;;;28.33;;
9836;SDS011;4957;51.412;6.724;2024-03-07T03:18:34;64.53;;;27.40;;
9836;SDS011;4957;51.412;6.724;2024-03-07T03:21:00;58.93;;;29.10;;
9836;SDS011;4957;51.412;6.724;2024-03-07T03:23:27;58.00;;;28.83;;
9836;SDS011;4957;51.412;6.724;2024-03-07T03:25:53;55.63;;;26.03;;
9836;SDS011;4957;51.412;6.724;2024-03-07T03:28:20;58.57;;;27.03;;
9836;SDS011;4957;51.412;6.724;2024-03-07T03:30:46;53.73;;;26.87;;
9836;SDS011;4957;51.412;6.724;2024-03-07T03:33:12;51.47;;;24.97;;
9836;SDS011;4957;51.412;6.724;2024-03-07T03:35:38;50.77;;;26.67;;
9836;SDS011;4957;51.412;6.724;2024-03-07T03:38:05;48.23;;;25.60;;
9836;SDS011;4957;51.412;6.724;2024-03-07T03:40:31;53.33;;;26.13;;
9836;SDS011;4957;51.412;6.724;2024-03-07T03:42:58;50.43;;;24.17;;
9836;SDS011;4957;51.412;6.724;2024-03-07T03:45:24;60.53;;;26.03;;
9836;SDS011;4957;51.412;6.724;2024-03-07T03:47:50;56.53;;;25.00;;
9836;SDS011;4957;51.412;6.724;2024-03-07T03:50:17;49.13;;;25.77;;
9836;SDS011;4957;51.412;6.724;2024-03-07T03:52:43;52.80;;;25.13;;
9836;SDS011;4957;51.412;6.724;2024-03-07T03:55:09;55.53;;;27.57;;
9836;SDS011;4957;51.412;6.724;2024-03-07T03:57:35;50.80;;;25.20;;
9836;SDS011;4957;51.412;6.724;2024-03-07T04:00:05;51.67;;;25.83;;
9836;SDS011;4957;51.412;6.724;2024-03-07T04:02:37;51.90;;;26.57;;
9836;SDS011;4957;51.412;6.724;2024-03-07T04:05:06;56.17;;;27.20;;
9836;SDS011;4957;51.412;6.724;2024-03-07T04:07:32;55.73;;;27.93;;
9836;SDS011;4957;51.412;6.724;2024-03-07T04:09:58;57.43;;;28.47;;
9836;SDS011;4957;51.412;6.724;2024-03-07T04:12:24;54.07;;;27.23;;
9836;SDS011;4957;51.412;6.724;2024-03-07T04:14:52;60.37;;;27.80;;
9836;SDS011;4957;51.412;6.724;2024-03-07T04:17:20;52.90;;;27.10;;
9836;SDS011;4957;51.412;6.724;2024-03-07T04:19:46;53.77;;;27.33;;
9836;SDS011;4957;51.412;6.724;2024-03-07T04:22:12;58.80;;;28.50;;
9836;SDS011;4957;51.412;6.724;2024-03-07T04:24:38;54.83;;;27.20;;
9836;SDS011;4957;51.412;6.724;2024-03-07T04:27:05;53.97;;;26.57;;
9836;SDS011;4957;51.412;6.724;2024-03-07T04:29:32;59.53;;;27.93;;
9836;SDS011;4957;51.412;6.724;2024-03-07T04:31:58;50.57;;;26.60;;
9836;SDS011;4957;51.412;6.724;2024-03-07T04:34:25;62.60;;;27.70;;
9836;SDS011;4957;51.412;6.724;2024-03-07T04:36:50;61.37;;;26.57;;
9836;SDS011;4957;51.412;6.724;2024-03-07T04:39:16;55.13;;;25.87;;
9836;SDS011;4957;51.412;6.724;2024-03-07T04:42:00;53.03;;;25.77;;
9836;SDS011;4957;51.412;6.724;2024-03-07T04:44:31;55.20;;;26.63;;
9836;SDS011;4957;51.412;6.724;2024-03-07T04:46:58;56.17;;;28.40;;
9836;SDS011;4957;51.412;6.724;2024-03-07T04:49:26;56.33;;;28.63;;
9836;SDS011;4957;51.412;6.724;2024-03-07T04:51:54;60.57;;;27.37;;
9836;SDS011;4957;51.412;6.724;2024-03-07T04:54:21;57.33;;;25.90;;
9836;SDS011;4957;51.412;6.724;2024-03-07T04:56:48;58.37;;;26.07;;
9836;SDS011;4957;51.412;6.724;2024-03-07T04:59:15;59.77;;;26.90;;
9836;SDS011;4957;51.412;6.724;2024-03-07T05:01:42;50.93;;;25.53;;
9836;SDS011;4957;51.412;6.724;2024-03-07T05:04:08;52.50;;;26.50;;
9836;SDS011;4957;51.412;6.724;2024-03-07T05:06:34;53.30;;;25.90;;
9836;SDS011;4957;51.412;6.724;2024-03-07T05:09:02;54.47;;;27.83;;
9836;SDS011;4957;51.412;6.724;2024-03-07T05:11:31;51.23;;;26.50;;
9836;SDS011;4957;51.412;6.724;2024-03-07T05:13:57;52.97;;;25.53;;
9836;SDS011;4957;51.412;6.724;2024-03-07T05:16:24;46.87;;;24.53;;
9836;SDS011;4957;51.412;6.724;2024-03-07T05:18:50;45.33;;;24.77;;
9836;SDS011;4957;51.412;6.724;2024-03-07T05:21:17;56.53;;;25.77;;
9836;SDS011;4957;51.412;6.724;2024-03-07T05:24:00;51.47;;;23.67;;
9836;SDS011;4957;51.412;6.724;2024-03-07T05:26:28;45.47;;;23.93;;
9836;SDS011;4957;51.412;6.724;2024-03-07T05:28:58;49.73;;;25.53;;
9836;SDS011;4957;51.412;6.724;2024-03-07T05:31:28;46.20;;;25.33;;
9836;SDS011;4957;51.412;6.724;2024-03-07T05:33:53;52.73;;;25.47;;
9836;SDS011;4957;51.412;6.724;2024-03-07T05:36:19;51.87;;;26.37;;
9836;SDS011;4957;51.412;6.724;2024-03-07T05:38:45;51.60;;;25.50;;
9836;SDS011;4957;51.412;6.724;2024-03-07T05:41:11;44.50;;;23.03;;
9836;SDS011;4957;51.412;6.724;2024-03-07T05:43:39;46.20;;;24.00;;
9836;SDS011;4957;51.412;6.724;2024-03-07T05:46:05;49.90;;;26.87;;
9836;SDS011;4957;51.412;6.724;2024-03-07T05:48:32;58.27;;;29.10;;
9836;SDS011;4957;51.412;6.724;2024-03-07T05:50:58;55.67;;;27.10;;
9836;SDS011;4957;51.412;6.724;2024-03-07T05:53:24;47.03;;;25.20;;
9836;SDS011;4957;51.412;6.724;2024-03-07T05:55:50;42.00;;;23.10;;
9836;SDS011;4957;51.412;6.724;2024-03-07T05:58:16;48.40;;;24.93;;
9836;SDS011;4957;51.412;6.724;2024-03-07T06:00:45;53.67;;;24.33;;
9836;SDS011;4957;51.412;6.724;2024-03-07T06:03:20;54.73;;;28.90;;
9836;SDS011;4957;51.412;6.724;2024-03-07T06:05:46;46.43;;;23.37;;
9836;SDS011;4957;51.412;6.724;2024-03-07T06:08:16;46.67;;;25.57;;
9836;SDS011;4957;51.412;6.724;2024-03-07T06:10:42;48.33;;;24.43;;
9836;SDS011;4957;51.412;6.724;2024-03-07T06:13:08;46.57;;;25.30;;
9836;SDS011;4957;51.412;6.724;2024-03-07T06:15:36;51.23;;;26.13;;
9836;SDS011;4957;51.412;6.724;2024-03-07T06:18:05;52.60;;;24.87;;
9836;SDS011;4957;51.412;6.724;2024-03-07T06:20:33;48.00;;;25.97;;
9836;SDS011;4957;51.412;6.724;2024-03-07T06:23:01;47.77;;;24.97;;
9836;SDS011;4957;51.412;6.724;2024-03-07T06:25:33;44.57;;;22.47;;
9836;SDS011;4957;51.412;6.724;2024-03-07T06:28:03;44.40;;;24.47;;
9836;SDS011;4957;51.412;6.724;2024-03-07T06:30:39;50.90;;;26.37;;
9836;SDS011;4957;51.412;6.724;2024-03-07T06:33:06;48.03;;;26.37;;
9836;SDS011;4957;51.412;6.724;2024-03-07T06:35:32;40.70;;;22.37;;
9836;SDS011;4957;51.412;6.724;2024-03-07T06:38:02;51.17;;;24.30;;
9836;SDS011;4957;51.412;6.724;2024-03-07T06:40:28;54.17;;;26.33;;
9836;SDS011;4957;51.412;6.724;2024-03-07T06:42:54;49.70;;;25.53;;
9836;SDS011;4957;51.412;6.724;2024-03-07T06:45:20;42.97;;;23.57;;
9836;SDS011;4957;51.412;6.724;2024-03-07T06:47:46;54.13;;;27.37;;
9836;SDS011;4957;51.412;6.724;2024-03-07T06:50:12;43.80;;;24.43;;
9836;SDS011;4957;51.412;6.724;2024-03-07T06:52:44;43.70;;;24.10;;
9836;SDS011;4957;51.412;6.724;2024-03-07T06:55:14;54.40;;;26.30;;
9836;SDS011;4957;51.412;6.724;2024-03-07T06:57:41;53.17;;;26.67;;
9836;SDS011;4957;51.412;6.724;2024-03-07T07:00:14;58.00;;;28.57;;
9836;SDS011;4957;51.412;6.724;2024-03-07T07:02:47;56.37;;;29.80;;
9836;SDS011;4957;51.412;6.724;2024-03-07T07:05:13;64.00;;;30.23;;
9836;SDS011;4957;51.412;6.724;2024-03-07T07:07:43;76.13;;;32.97;;
9836;SDS011;4957;51.412;6.724;2024-03-07T07:10:10;83.50;;;35.43;;
9836;SDS011;4957;51.412;6.724;2024-03-07T07:12:48;111.40;;;42.40;;
9836;SDS011;4957;51.412;6.724;2024-03-07T07:15:16;95.30;;;40.33;;
9836;SDS011;4957;51.412;6.724;2024-03-07T07:17:45;99.27;;;39.73;;
9836;SDS011;4957;51.412;6.724;2024-03-07T07:20:12;97.20;;;35.43;;
9836;SDS011;4957;51.412;6.724;2024-03-07T07:22:42;138.13;;;49.47;;
9836;SDS011;4957;51.412;6.724;2024-03-07T07:25:08;131.70;;;48.80;;
9836;SDS011;4957;51.412;6.724;2024-03-07T07:27:44;144.53;;;48.43;;
9836;SDS011;4957;51.412;6.724;2024-03-07T07:30:15;148.67;;;51.17;;
9836;SDS011;4957;51.412;6.724;2024-03-07T07:32:42;157.67;;;55.27;;
9836;SDS011;4957;51.412;6.724;2024-03-07T07:35:09;180.50;;;60.03;;
9836;SDS011;4957;51.412;6.724;2024-03-07T07:37:39;189.17;;;58.77;;
9836;SDS011;4957;51.412;6.724;2024-03-07T07:40:06;184.20;;;60.80;;
9836;SDS011;4957;51.412;6.724;2024-03-07T07:42:38;186.10;;;62.53;;
9836;SDS011;4957;51.412;6.724;2024-03-07T07:45:14;174.27;;;58.77;;
9836;SDS011;4957;51.412;6.724;2024-03-07T07:47:41;171.07;;;64.50;;
9836;SDS011;4957;51.412;6.724;2024-03-07T07:52:53;148.00;;;62.97;;
9836;SDS011;4957;51.412;6.724;2024-03-07T07:55:20;130.93;;;63.43;;
9836;SDS011;4957;51.412;6.724;2024-03-07T07:57:48;147.47;;;60.87;;
9836;SDS011;4957;51.412;6.724;2024-03-07T08:00:18;119.53;;;55.50;;
9836;SDS011;4957;51.412;6.724;2024-03-07T08:05:17;76.70;;;41.03;;
9836;SDS011;4957;51.412;6.724;2024-03-07T08:07:44;69.53;;;38.30;;
9836;SDS011;4957;51.412;6.724;2024-03-07T08:10:14;59.37;;;34.37;;
9836;SDS011;4957;51.412;6.724;2024-03-07T08:12:40;47.30;;;29.77;;
9836;SDS011;4957;51.412;6.724;2024-03-07T08:15:08;45.23;;;28.00;;
9836;SDS011;4957;51.412;6.724;2024-03-07T08:17:44;34.33;;;23.10;;
9836;SDS011;4957;51.412;6.724;2024-03-07T08:20:11;39.47;;;23.37;;
9836;SDS011;4957;51.412;6.724;2024-03-07T08:22:39;41.63;;;24.43;;
9836;SDS011;4957;51.412;6.724;2024-03-07T08:25:11;37.43;;;23.47;;
9836;SDS011;4957;51.412;6.724;2024-03-07T08:27:38;39.33;;;22.47;;
9836;SDS011;4957;51.412;6.724;2024-03-07T08:30:05;40.07;;;22.03;;
9836;SDS011;4957;51.412;6.724;2024-03-07T08:32:41;35.13;;;21.83;;
9836;SDS011;4957;51.412;6.724;2024-03-07T08:35:08;35.10;;;19.93;;
9836;SDS011;4957;51.412;6.724;2024-03-07T08:37:36;33.17;;;20.40;;
9836;SDS011;4957;51.412;6.724;2024-03-07T08:40:02;33.03;;;19.87;;
9836;SDS011;4957;51.412;6.724;2024-03-07T08:42:44;32.70;;;20.33;;
9836;SDS011;4957;51.412;6.724;2024-03-07T08:45:16;36.47;;;20.87;;
9836;SDS011;4957;51.412;6.724;2024-03-07T08:47:44;32.83;;;20.27;;
9836;SDS011;4957;51.412;6.724;2024-03-07T08:50:11;29.03;;;17.00;;
9836;SDS011;4957;51.412;6.724;2024-03-07T08:52:38;30.17;;;17.73;;
9836;SDS011;4957;51.412;6.724;2024-03-07T08:55:08;27.07;;;18.27;;
9836;SDS011;4957;51.412;6.724;2024-03-07T08:57:34;27.13;;;17.23;;
9836;SDS011;4957;51.412;6.724;2024-03-07T09:00:07;26.10;;;18.03;;
9836;SDS011;4957;51.412;6.724;2024-03-07T09:02:34;26.43;;;16.77;;
9836;SDS011;4957;51.412;6.724;2024-03-07T09:05:04;27.20;;;18.30;;
9836;SDS011;4957;51.412;6.724;2024-03-07T09:07:30;26.40;;;16.20;;
9836;SDS011;4957;51.412;6.724;2024-03-07T09:09:57;25.20;;;16.27;;
9836;SDS011;4957;51.412;6.724;2024-03-07T09:12:23;24.50;;;14.50;;
9836;SDS011;4957;51.412;6.724;2024-03-07T09:14:50;29.07;;;16.00;;
9836;SDS011;4957;51.412;6.724;2024-03-07T09:17:17;25.30;;;15.33;;
9836;SDS011;4957;51.412;6.724;2024-03-07T09:19:43;19.30;;;13.43;;
9836;SDS011;4957;51.412;6.724;2024-03-07T09:22:09;25.83;;;14.13;;
9836;SDS011;4957;51.412;6.724;2024-03-07T09:24:34;21.27;;;13.80;;
9836;SDS011;4957;51.412;6.724;2024-03-07T09:27:02;19.47;;;13.33;;
9836;SDS011;4957;51.412;6.724;2024-03-07T09:29:29;17.70;;;11.40;;
9836;SDS011;4957;51.412;6.724;2024-03-07T09:31:55;22.07;;;13.63;;
9836;SDS011;4957;51.412;6.724;2024-03-07T09:34:22;26.90;;;13.97;;
9836;SDS011;4957;51.412;6.724;2024-03-07T09:36:49;18.67;;;11.90;;
9836;SDS011;4957;51.412;6.724;2024-03-07T09:39:16;23.47;;;13.47;;
9836;SDS011;4957;51.412;6.724;2024-03-07T09:41:42;21.67;;;13.57;;
9836;SDS011;4957;51.412;6.724;2024-03-07T09:44:08;18.77;;;12.70;;
9836;SDS011;4957;51.412;6.724;2024-03-07T09:46:37;21.70;;;11.90;;
9836;SDS011;4957;51.412;6.724;2024-03-07T09:49:04;15.87;;;11.77;;
9836;SDS011;4957;51.412;6.724;2024-03-07T09:51:33;20.57;;;12.00;;
9836;SDS011;4957;51.412;6.724;2024-03-07T09:54:00;17.47;;;11.73;;
9836;SDS011;4957;51.412;6.724;2024-03-07T09:56:27;17.83;;;11.50;;
9836;SDS011;4957;51.412;6.724;2024-03-07T09:58:57;18.87;;;12.00;;
9836;SDS011;4957;51.412;6.724;2024-03-07T10:01:27;19.87;;;13.37;;
9836;SDS011;4957;51.412;6.724;2024-03-07T10:04:00;19.47;;;13.10;;
9836;SDS011;4957;51.412;6.724;2024-03-07T10:06:35;22.37;;;13.20;;
9836;SDS011;4957;51.412;6.724;2024-03-07T10:09:01;21.07;;;12.57;;
9836;SDS011;4957;51.412;6.724;2024-03-07T10:11:29;19.73;;;14.20;;
9836;SDS011;4957;51.412;6.724;2024-03-07T10:13:54;23.10;;;13.53;;
9836;SDS011;4957;51.412;6.724;2024-03-07T10:16:20;21.00;;;13.80;;
9836;SDS011;4957;51.412;6.724;2024-03-07T10:18:46;19.63;;;13.63;;
9836;SDS011;4957;51.412;6.724;2024-03-07T10:21:13;17.67;;;12.97;;
9836;SDS011;4957;51.412;6.724;2024-03-07T10:23:38;18.63;;;13.23;;
9836;SDS011;4957;51.412;6.724;2024-03-07T10:26:05;21.20;;;12.27;;
9836;SDS011;4957;51.412;6.724;2024-03-07T10:28:31;19.70;;;12.40;;
9836;SDS011;4957;51.412;6.724;2024-03-07T10:30:58;20.23;;;13.10;;
9836;SDS011;4957;51.412;6.724;2024-03-07T10:33:28;20.57;;;13.37;;
9836;SDS011;4957;51.412;6.724;2024-03-07T10:35:58;23.17;;;13.43;;
9836;SDS011;4957;51.412;6.724;2024-03-07T10:38:24;22.87;;;13.77;;
9836;SDS011;4957;51.412;6.724;2024-03-07T10:40:52;20.63;;;12.37;;
9836;SDS011;4957;51.412;6.724;2024-03-07T10:43:20;21.57;;;13.03;;
9836;SDS011;4957;51.412;6.724;2024-03-07T10:45:49;20.23;;;13.77;;
9836;SDS011;4957;51.412;6.724;2024-03-07T10:48:18;22.27;;;13.60;;
9836;SDS011;4957;51.412;6.724;2024-03-07T10:53:37;19.77;;;13.17;;
9836;SDS011;4957;51.412;6.724;2024-03-07T11:01:32;21.10;;;14.03;;
9836;SDS011;4957;51.412;6.724;2024-03-07T11:04:04;20.70;;;13.97;;
9836;SDS011;4957;51.412;6.724;2024-03-07T11:06:33;18.63;;;14.27;;
9836;SDS011;4957;51.412;6.724;2024-03-07T11:08:59;23.07;;;13.00;;
9836;SDS011;4957;51.412;6.724;2024-03-07T11:11:28;19.27;;;13.13;;
9836;SDS011;4957;51.412;6.724;2024-03-07T11:13:54;19.30;;;13.03;;
9836;SDS011;4957;51.412;6.724;2024-03-07T11:16:24;20.77;;;13.70;;
9836;SDS011;4957;51.412;6.724;2024-03-07T11:21:48;18.67;;;12.13;;
9836;SDS011;4957;51.412;6.724;2024-03-07T11:24:27;21.27;;;13.67;;
9836;SDS011;4957;51.412;6.724;2024-03-07T11:26:55;19.80;;;13.23;;
9836;SDS011;4957;51.412;6.724;2024-03-07T11:32:09;19.50;;;12.83;;
9836;SDS011;4957;51.412;6.724;2024-03-07T11:34:37;19.23;;;13.03;;
9836;SDS011;4957;51.412;6.724;2024-03-07T11:37:06;17.70;;;12.43;;
9836;SDS011;4957;51.412;6.724;2024-03-07T11:39:42;22.67;;;12.60;;
9836;SDS011;4957;51.412;6.724;2024-03-07T11:42:24;18.57;;;12.60;;
9836;SDS011;4957;51.412;6.724;2024-03-07T11:44:50;17.43;;;12.83;;
9836;SDS011;4957;51.412;6.724;2024-03-07T11:47:16;18.47;;;12.40;;
9836;SDS011;4957;51.412;6.724;2024-03-07T11:49:43;20.60;;;12.80;;
9836;SDS011;4957;51.412;6.724;2024-03-07T11:52:17;18.00;;;12.07;;
9836;SDS011;4957;51.412;6.724;2024-03-07T11:54:44;21.87;;;12.47;;
9836;SDS011;4957;51.412;6.724;2024-03-07T11:57:16;21.03;;;12.93;;
9836;SDS011;4957;51.412;6.724;2024-03-07T11:59:44;16.27;;;12.10;;
9836;SDS011;4957;51.412;6.724;2024-03-07T12:02:12;19.80;;;12.50;;
9836;SDS011;4957;51.412;6.724;2024-03-07T12:04:42;21.73;;;12.70;;
9836;SDS011;4957;51.412;6.724;2024-03-07T12:07:08;19.67;;;13.30;;
9836;SDS011;4957;51.412;6.724;2024-03-07T12:09:38;18.60;;;13.27;;
9836;SDS011;4957;51.412;6.724;2024-03-07T12:12:04;18.40;;;12.13;;
9836;SDS011;4957;51.412;6.724;2024-03-07T12:14:31;21.70;;;12.30;;
9836;SDS011;4957;51.412;6.724;2024-03-07T12:16:59;19.30;;;11.83;;
9836;SDS011;4957;51.412;6.724;2024-03-07T12:19:29;20.17;;;12.57;;
9836;SDS011;4957;51.412;6.724;2024-03-07T12:21:59;21.87;;;12.70;;
9836;SDS011;4957;51.412;6.724;2024-03-07T12:24:26;17.67;;;12.33;;
9836;SDS011;4957;51.412;6.724;2024-03-07T12:26:52;18.43;;;12.33;;
9836;SDS011;4957;51.412;6.724;2024-03-07T12:29:24;17.60;;;12.40;;
9836;SDS011;4957;51.412;6.724;2024-03-07T12:31:50;19.23;;;12.80;;
9836;SDS011;4957;51.412;6.724;2024-03-07T12:34:16;18.30;;;12.77;;
9836;SDS011;4957;51.412;6.724;2024-03-07T12:36:42;18.03;;;12.10;;
9836;SDS011;4957;51.412;6.724;2024-03-07T12:39:23;18.43;;;12.83;;
9836;SDS011;4957;51.412;6.724;2024-03-07T12:41:50;21.00;;;13.07;;
9836;SDS011;4957;51.412;6.724;2024-03-07T12:44:21;17.13;;;12.03;;
9836;SDS011;4957;51.412;6.724;2024-03-07T12:46:47;19.03;;;13.50;;
9836;SDS011;4957;51.412;6.724;2024-03-07T12:49:16;17.77;;;12.17;;
9836;SDS011;4957;51.412;6.724;2024-03-07T12:51:42;21.30;;;13.13;;
9836;SDS011;4957;51.412;6.724;2024-03-07T12:54:08;18.80;;;13.03;;
9836;SDS011;4957;51.412;6.724;2024-03-07T12:56:37;21.57;;;12.03;;
9836;SDS011;4957;51.412;6.724;2024-03-07T12:59:03;19.03;;;13.73;;
9836;SDS011;4957;51.412;6.724;2024-03-07T13:01:29;18.50;;;13.00;;
9836;SDS011;4957;51.412;6.724;2024-03-07T13:03:58;18.60;;;13.57;;
9836;SDS011;4957;51.412;6.724;2024-03-07T13:06:24;18.53;;;12.30;;
9836;SDS011;4957;51.412;6.724;2024-03-07T13:08:54;23.70;;;13.00;;
9836;SDS011;4957;51.412;6.724;2024-03-07T13:11:24;19.20;;;14.27;;
9836;SDS011;4957;51.412;6.724;2024-03-07T13:13:52;20.40;;;13.77;;
9836;SDS011;4957;51.412;6.724;2024-03-07T13:16:18;19.10;;;12.60;;
9836;SDS011;4957;51.412;6.724;2024-03-07T13:18:44;16.67;;;12.00;;
9836;SDS011;4957;51.412;6.724;2024-03-07T13:21:11;20.10;;;13.80;;
9836;SDS011;4957;51.412;6.724;2024-03-07T13:23:42;24.27;;;12.67;;
9836;SDS011;4957;51.412;6.724;2024-03-07T13:26:09;19.13;;;13.90;;
9836;SDS011;4957;51.412;6.724;2024-03-07T13:28:41;22.50;;;13.67;;
9836;SDS011;4957;51.412;6.724;2024-03-07T13:31:09;23.30;;;13.23;;
9836;SDS011;4957;51.412;6.724;2024-03-07T13:33:42;19.70;;;12.93;;
9836;SDS011;4957;51.412;6.724;2024-03-07T13:36:09;17.43;;;12.47;;
9836;SDS011;4957;51.412;6.724;2024-03-07T13:38:35;19.67;;;12.83;;
9836;SDS011;4957;51.412;6.724;2024-03-07T13:41:01;20.00;;;11.23;;
9836;SDS011;4957;51.412;6.724;2024-03-07T13:43:30;18.73;;;12.77;;
9836;SDS011;4957;51.412;6.724;2024-03-07T13:45:58;18.23;;;12.63;;
9836;SDS011;4957;51.412;6.724;2024-03-07T13:48:25;18.43;;;13.10;;
9836;SDS011;4957;51.412;6.724;2024-03-07T13:50:51;18.03;;;12.73;;
9836;SDS011;4957;51.412;6.724;2024-03-07T13:53:19;17.93;;;11.90;;
9836;SDS011;4957;51.412;6.724;2024-03-07T13:58:50;17.10;;;11.63;;
9836;SDS011;4957;51.412;6.724;2024-03-07T14:09:22;19.20;;;11.10;;
9836;SDS011;4957;51.412;6.724;2024-03-07T14:14:58;17.43;;;11.47;;
9836;SDS011;4957;51.412;6.724;2024-03-07T14:17:58;14.63;;;11.17;;
9836;SDS011;4957;51.412;6.724;2024-03-07T14:31:41;14.43;;;9.23;;
9836;SDS011;4957;51.412;6.724;2024-03-07T14:34:14;11.33;;;9.10;;
9836;SDS011;4957;51.412;6.724;2024-03-07T14:37:03;13.17;;;8.93;;
9836;SDS011;4957;51.412;6.724;2024-03-07T14:39:35;14.17;;;8.37;;
9836;SDS011;4957;51.412;6.724;2024-03-07T14:42:03;11.03;;;8.00;;
9836;SDS011;4957;51.412;6.724;2024-03-07T14:44:35;14.63;;;8.80;;
9836;SDS011;4957;51.412;6.724;2024-03-07T14:47:05;10.87;;;8.30;;
9836;SDS011;4957;51.412;6.724;2024-03-07T14:49:36;11.00;;;7.70;;
9836;SDS011;4957;51.412;6.724;2024-03-07T14:52:02;12.03;;;7.93;;
9836;SDS011;4957;51.412;6.724;2024-03-07T14:54:29;11.53;;;8.17;;
9836;SDS011;4957;51.412;6.724;2024-03-07T14:56:55;12.43;;;8.17;;
9836;SDS011;4957;51.412;6.724;2024-03-07T14:59:21;10.67;;;7.83;;
9836;SDS011;4957;51.412;6.724;2024-03-07T15:01:47;13.20;;;8.63;;
9836;SDS011;4957;51.412;6.724;2024-03-07T15:04:13;9.90;;;7.43;;
9836;SDS011;4957;51.412;6.724;2024-03-07T15:06:39;12.37;;;7.97;;
9836;SDS011;4957;51.412;6.724;2024-03-07T15:09:07;11.17;;;7.50;;
9836;SDS011;4957;51.412;6.724;2024-03-07T15:11:35;9.73;;;6.80;;
9836;SDS011;4957;51.412;6.724;2024-03-07T15:14:03;10.73;;;6.90;;
9836;SDS011;4957;51.412;6.724;2024-03-07T15:16:34;9.97;;;6.80;;
9836;SDS011;4957;51.412;6.724;2024-03-07T15:19:02;10.07;;;6.77;;
9836;SDS011;4957;51.412;6.724;2024-03-07T15:21:33;9.27;;;5.43;;
9836;SDS011;4957;51.412;6.724;2024-03-07T15:24:04;9.27;;;5.80;;
9836;SDS011;4957;51.412;6.724;2024-03-07T15:26:30;7.80;;;6.10;;
9836;SDS011;4957;51.412;6.724;2024-03-07T15:28:59;9.10;;;6.30;;
9836;SDS011;4957;51.412;6.724;2024-03-07T15:31:25;9.93;;;5.97;;
9836;SDS011;4957;51.412;6.724;2024-03-07T15:33:52;9.50;;;5.53;;
9836;SDS011;4957;51.412;6.724;2024-03-07T15:36:18;9.47;;;5.63;;